Main page
METAR-TAF:

METAR-TAF

Airports :

Cork Airport

Cork, Ireland

latitude: 51-51N, longitude: 008-29W, elevation: 153 m

Current weather observation

The report was made 33 minutes ago, at 18:30 UTC
Wind 6 kt from the West/Northwest
Temperature 8°C
Humidity 76%
Pressure 1021 hPa
Visibility 10 km or more
Few clouds at a height of 2800 ft

METAR: EICK 211830Z 30006KT 9999 FEW028 08/04 Q1021 NOSIG

Time: 20:03 (19:03 UTC)

Forecast

The report was made 2 hours and 3 minutes ago, at 17:00 UTC
Forecast valid from 21 at 18 UTC to 22 at 18 UTC
Wind 8 kt from the West/Northwest
Visibility 10 km or more
Few clouds at a height of 2500 ft

TAF: EICK 211700Z 2118/2218 29008KT 9999 FEW025

Weather observations and forecasts of more than 4000 airports (METAR and TAF reports).

The available stations are represented by yellow and red dots on the map.

Hover mouse over dot to see the name of the station.

Then click to see weather observations and forecasts.

To change the map : click on the green buttons with a black cross to zoom in, on the green button with a dash to zoom out, or on the green arrows for adjacent maps.


METAR-TAF: